15:52
Airports
History
Links
Donate
Help keep this website running!
PayPal
Bitcoin
This page is community maintained. The information is intended for PC simulator navigation or reference.
Always use approved charts for navigation.
YAUR
AurukunEdited 07-Mar-2012
Aurukun (YAUR)
Aurukun, Queensland, Australia (4871)
(U)
Lat/Lng:13° 21' 13.51" S / 141° 43' 11.08" E
-13.353753 / 141.719745
Elevation:20'ft / 6mMSL
ID / ICAO:YAUR
Runways:1
Longest:16-34
Asphalt 1,271m / 4,171ft
Beacon:White-Green
(Edited 2012-03-07) [ Sign in to Edit ]
Nearby Weather15:00 GMT 2018-01-18
Nearby weather at YBWP, Weipa located 48.7 nautical miles from YAUR
Altimeter: 29.80
Visibility: 6.2 statute miles
Wind: 4 knots (from 040°)
Temp: 25°c / 77°f
Humidity: 88.7%

METAR: YBWP 181500Z AUTO 04004KT 9999 // NCD 25/23 Q1009

(Powered by phpweather)
Airport Radio Frequencies
CTAF: 126.7
Runway 16 / 34
Dimensions:1271.4 x 34.1m 4171' x 112'ft
Surface:Asphalt
Edge Lights:Low intensity
Runway 16 [A]Runway 34 [B]
Heading:160°TH 340°TH
Lat:
Lng:
13° 20' 54.11"S
141° 43' 4.06"E
13° 21' 32.91"S
141° 43' 18.11"E
User Notes and Comments
13° 21' 13.51" S / 141° 43' 11.08" E
Distance To
Airport ID:
Nearby Airports
4 WATHANIN 26.5 NM
YWNI SSW 204°
4 KENCHERANG 35.2 NM
YKNC SSW 194°
4 WATSON RIVER 35.7 NM
YWTV ENE 75°
4 CAPE KEER-WEER 37.2 NM
YCPW SSW 205°
4 KENDALL 38.6 NM
YKRV SE 134°
4 TI TREE (QLD) 43.7 NM
YTTE S 185°
(U) Weipa 48.7 NM
YBWP ( WX ) NNE 16°
VFR Chart
Flight Planning at SkyVector.com